• Join FlightAware (Why Join?)
  • Login
  • US Flag 
01:55PM EDT


 

Airport Tracker/Info


-or-


 

Live Flight TrackerFlight Track Log ✈ N504HC ✈ 04-Apr-2012 ✈ KELM - KPIT

Flight Track Log - Related Links

Times and Time Zones

All times are in EDT time to prevent confusion due to time zone crossing. See the N504HC flight status page for this flight to view local times or setup timezone preferences in your user account.

Time Position Orientation Groundspeed Altitude Reporting Facility
EDT Latitude Longitude Course Direction KTS MPH feet Rate Location/Type
03:23PM 42.1236 -76.9361 235° Southwest 114 131 3,400  Level New York Center
03:24PM 42.1094 -76.9639 230° Southwest 93 107 4,800 1,500 Climbing Cleveland Center
03:25PM 42.0894 -76.9958 230° Southwest 93 107 6,300 1,440 Climbing Cleveland Center
03:26PM 42.0678 -77.0306 235° Southwest 112 129 7,700 1,200 Climbing Cleveland Center
03:27PM 42.0500 -77.0653 236° Southwest 117 135 8,800 1,200 Climbing Cleveland Center
03:28PM 42.0244 -77.1169 229° Southwest 149 171 10,200 1,140 Climbing Cleveland Center
03:29PM 41.9925 -77.1661 231° Southwest 174 200 11,100 840 Climbing Cleveland Center
03:30PM 41.9608 -77.2181 233° Southwest 188 216 11,900 480 Climbing Cleveland Center
03:31PM 41.9331 -77.2669 231° Southwest 188 216 12,100 60 Climbing Cleveland Center
03:32PM 41.8953 -77.3303 232° Southwest 194 223 12,100 -60 Level Cleveland Center
03:33PM 41.8594 -77.3908 233° Southwest 207 238 12,000 -60 Descending Cleveland Center
03:34PM 41.8236 -77.4539 230° Southwest 212 244 12,000  Level Cleveland Center
03:35PM 41.7817 -77.5200 230° Southwest 212 244 12,000  Level Cleveland Center
03:36PM 41.7436 -77.5803 242° Southwest 212 244 12,000  Level Cleveland Center
03:37PM 41.7161 -77.6483 242° Southwest 212 244 12,000  Level Cleveland Center
03:38PM 41.6886 -77.7161 245° Southwest 212 244 12,000  Level Cleveland Center
03:39PM 41.6653 -77.7839 242° Southwest 212 244 12,000  Level Cleveland Center
03:40PM 41.6397 -77.8489 241° Southwest 207 238 12,000  Level Cleveland Center
03:41PM 41.6122 -77.9142 245° Southwest 207 238 12,000  Level Cleveland Center
03:42PM 41.5886 -77.9817 242° Southwest 207 238 12,000  Level Cleveland Center
03:43PM 41.5631 -78.0467 241° Southwest 207 238 12,000  Level Cleveland Center
03:44PM 41.5353 -78.1142 242° Southwest 207 238 12,000  Level Cleveland Center
03:45PM 41.5094 -78.1789 243° Southwest 207 238 12,000  Level Cleveland Center
03:46PM 41.4839 -78.2464 244° Southwest 207 238 12,000  Level Cleveland Center
03:47PM 41.4622 -78.3056 240° Southwest 207 238 12,000  Level Cleveland Center
03:48PM 41.4342 -78.3703 243° Southwest 207 238 12,000  Level Cleveland Center
03:49PM 41.4083 -78.4375 242° Southwest 207 238 12,000  Level Cleveland Center
03:50PM 41.3825 -78.5019 244° Southwest 207 238 12,000  Level Cleveland Center
03:51PM 41.3567 -78.5719 241° Southwest 207 238 12,000  Level Cleveland Center
03:52PM 41.3286 -78.6392 242° Southwest 207 238 12,000  Level Cleveland Center
03:53PM 41.3006 -78.7092 242° Southwest 207 238 12,000  Level Cleveland Center
03:54PM 41.2744 -78.7733 244° Southwest 207 238 12,000  Level Cleveland Center
03:55PM 41.2483 -78.8433 241° Southwest 207 238 12,000  Level Cleveland Center
03:56PM 41.2183 -78.9158 241° Southwest 207 238 12,000  Level Cleveland Center
03:57PM 41.1942 -78.9744 242° Southwest 207 238 12,000  Level Cleveland Center
03:58PM 41.1639 -79.0497 242° Southwest 207 238 12,000  Level Cleveland Center
03:59PM 41.1356 -79.1192 243° Southwest 207 238 12,000  Level Cleveland Center
04:00PM 41.1094 -79.1886 240° Southwest 207 238 12,000  Level Cleveland Center
04:01PM 41.0808 -79.2553 242° Southwest 207 238 12,000  Level Cleveland Center
04:02PM 41.0525 -79.3247 243° Southwest 207 238 12,100 -300 Climbing Cleveland Center
04:03PM 41.0242 -79.3969 240° Southwest 213 245 11,400 -720 Descending Cleveland Center
04:04PM 40.9914 -79.4717 243° Southwest 224 258 10,700 -720 Descending Cleveland Center
04:05PM 40.9631 -79.5464 242° Southwest 229 264 10,000 -660 Descending Cleveland Center
04:06PM 40.9325 -79.6211 241° Southwest 229 264 9,400 -660 Descending Cleveland Center
04:07PM 40.8997 -79.6986 206° Southwest 234 269 8,700 -660 Descending Cleveland Center
04:08PM 40.8333 -79.7406 200° South 239 275 8,100 -360 Descending Cleveland Center
04:09PM 40.7689 -79.7717 202° Southwest 250 288 8,000 -600 Descending Cleveland Center
04:10PM 40.7003 -79.8081 215° Southwest 255 293 6,900 -1,020 Descending Cleveland Center
04:11PM 40.6464 -79.8581 212° Southwest 255 293 6,000 -540 Descending Cleveland Center
04:12PM 40.6125 -79.8864 216° Southwest 220 253 6,000 -780 Level FAA TRACON SMA TRACON (SMA)
04:13PM 40.5794 -79.9181 216° Southwest 212 244 5,000 -1,440 Descending FAA TRACON SMA TRACON (SMA)
04:13PM 40.5500 -79.9461 216° Southwest 212 244 4,100 -780 Descending FAA TRACON SMA TRACON (SMA)
04:14PM 40.5194 -79.9756 216° Southwest 195 224 4,000 -120 Descending FAA TRACON SMA TRACON (SMA)
04:15PM 40.4894 -80.0039 216° Southwest 190 219 4,000 -300 Level FAA TRACON SMA TRACON (SMA)
04:15PM 40.4636 -80.0286 216° Southwest 182 209 3,600 -780 Descending FAA TRACON SMA TRACON (SMA)
04:16PM 40.4350 -80.0556 235° Southwest 181 208 3,000 -480 Descending FAA TRACON SMA TRACON (SMA)
04:17PM 40.4203 -80.0836 278° West 147 169 3,000  Level FAA TRACON SMA TRACON (SMA)
04:17PM 40.4239 -80.1156 290° West 125 144 3,000 -240 Level FAA TRACON SMA TRACON (SMA)
04:18PM 40.4319 -80.1453 317° Northwest 125 144 2,700 -600 Descending FAA TRACON SMA TRACON (SMA)
04:19PM 40.4481 -80.1653 316° Northwest 115 132 2,200 -780 Descending FAA TRACON SMA TRACON (SMA)
04:19PM 40.4617 -80.1825 317° Northwest 109 125 1,700 -720 Descending FAA TRACON SMA TRACON (SMA)
04:20PM 40.4756 -80.1997 318° Northwest 101 116 1,300 -300 Descending FAA TRACON SMA TRACON (SMA)
04:21PM 40.4789 -80.2036 318° Northwest 99 114 1,300  Level FAA TRACON SMA TRACON (SMA)